createdAt,value
2022-09-25T00:00:27.963Z,1.67
2022-09-25T00:02:57.722Z,1.60
2022-09-25T00:05:27.242Z,1.60
2022-09-25T00:07:56.816Z,1.90
2022-09-25T00:10:27.896Z,1.60
2022-09-25T00:12:57.690Z,1.60
2022-09-25T00:15:27.572Z,1.90
2022-09-25T00:17:57.007Z,1.85
2022-09-25T00:20:26.713Z,2.10
2022-09-25T00:22:56.803Z,1.50
2022-09-25T00:25:28.185Z,1.47
2022-09-25T00:27:58.203Z,1.40
2022-09-25T00:30:28.018Z,1.70
2022-09-25T00:32:58.205Z,1.67
2022-09-25T00:35:27.945Z,1.70
2022-09-25T00:37:57.960Z,1.85
2022-09-25T00:40:27.466Z,2.02
2022-09-25T00:42:57.507Z,2.05
2022-09-25T00:45:27.315Z,2.00
2022-09-25T00:48:03.762Z,1.90
2022-09-25T00:50:36.556Z,2.00
2022-09-25T00:53:09.637Z,2.00
2022-09-25T00:55:41.664Z,2.00
2022-09-25T00:58:14.991Z,2.30
2022-09-25T01:00:45.577Z,2.47
2022-09-25T01:03:17.432Z,2.10
2022-09-25T01:05:49.221Z,2.20
2022-09-25T01:08:22.054Z,2.43
2022-09-25T01:10:52.047Z,2.17
2022-09-25T01:13:22.211Z,2.45
2022-09-25T01:16:03.796Z,2.53
2022-09-25T01:18:56.726Z,2.22
2022-09-25T01:21:47.150Z,2.60
2022-09-25T01:24:26.257Z,2.30
2022-09-25T01:27:15.181Z,2.50
2022-09-25T01:29:48.223Z,3.00
2022-09-25T01:32:21.006Z,2.83
2022-09-25T01:34:53.512Z,2.75
2022-09-25T01:37:35.073Z,2.90
2022-09-25T01:40:08.375Z,2.77
2022-09-25T01:42:48.466Z,2.60
2022-09-25T01:45:24.027Z,2.72
2022-09-25T01:47:56.327Z,2.87
2022-09-25T01:50:28.804Z,3.50
2022-09-25T01:53:01.340Z,2.90
2022-09-25T01:55:36.696Z,2.90
2022-09-25T01:58:14.683Z,2.97
2022-09-25T02:00:49.136Z,2.87
2022-09-25T02:03:25.831Z,2.70
2022-09-25T02:05:58.489Z,3.00
2022-09-25T02:08:33.497Z,2.80
2022-09-25T02:11:06.707Z,2.40
2022-09-25T02:13:39.437Z,2.70
2022-09-25T02:16:12.317Z,2.73
2022-09-25T02:19:00.246Z,2.75
2022-09-25T02:21:58.844Z,2.83
2022-09-25T02:24:47.174Z,2.57
2022-09-25T02:27:20.742Z,2.17
2022-09-25T02:29:52.217Z,2.50
2022-09-25T02:32:24.852Z,2.83
2022-09-25T02:34:54.639Z,2.47
2022-09-25T02:37:24.436Z,2.43
2022-09-25T02:39:57.961Z,2.13
2022-09-25T02:42:33.627Z,3.00
2022-09-25T02:45:08.628Z,2.17
2022-09-25T02:47:56.586Z,2.70
2022-09-25T02:50:40.609Z,2.37
2022-09-25T02:53:22.446Z,2.80
2022-09-25T02:58:55.781Z,3.08
2022-09-25T03:01:29.153Z,2.57
2022-09-25T03:04:01.615Z,2.62
2022-09-25T03:06:32.327Z,2.70
2022-09-25T03:09:03.195Z,2.60
2022-09-25T03:11:32.946Z,2.83
2022-09-25T03:14:05.823Z,2.65
2022-09-25T03:16:50.297Z,2.93
2022-09-25T03:19:20.520Z,2.77
2022-09-25T03:21:51.052Z,2.90
2022-09-25T03:24:21.910Z,3.10
2022-09-25T03:26:51.733Z,3.70
2022-09-25T03:29:22.609Z,3.30
2022-09-25T03:31:52.358Z,3.27
2022-09-25T03:34:22.982Z,3.77
2022-09-25T03:36:52.705Z,3.30
2022-09-25T03:39:22.808Z,3.72
2022-09-25T03:41:52.551Z,3.23
2022-09-25T03:44:22.588Z,3.60
2022-09-25T03:46:52.175Z,3.70
2022-09-25T03:49:22.564Z,3.70
2022-09-25T03:51:52.314Z,3.87
2022-09-25T03:54:22.343Z,3.95
2022-09-25T03:56:52.071Z,3.53
2022-09-25T03:59:22.174Z,4.10
2022-09-25T04:01:51.984Z,2.90
2022-09-25T04:04:22.557Z,3.90
2022-09-25T04:06:52.584Z,3.77
2022-09-25T04:09:23.286Z,3.30
2022-09-25T04:11:54.659Z,3.47
2022-09-25T04:14:24.671Z,3.10
2022-09-25T04:16:54.440Z,3.47
2022-09-25T04:19:24.518Z,3.10
2022-09-25T04:21:54.290Z,3.60
2022-09-25T04:24:41.818Z,3.33
2022-09-25T04:29:39.937Z,3.05
2022-09-25T04:32:27.457Z,3.90
2022-09-25T04:34:57.760Z,3.40
2022-09-25T04:37:28.063Z,3.13
2022-09-25T04:39:58.431Z,3.70
2022-09-25T04:42:28.093Z,3.47
2022-09-25T04:44:58.842Z,3.00
2022-09-25T04:47:31.376Z,2.83
2022-09-25T04:50:01.135Z,3.50
2022-09-25T04:52:31.692Z,3.58
2022-09-25T04:55:01.727Z,3.65
2022-09-25T04:57:56.634Z,3.65
2022-09-25T05:00:02.970Z,2.80
2022-09-25T05:02:32.669Z,3.25
2022-09-25T05:05:02.628Z,3.37
2022-09-25T05:07:32.377Z,3.33
2022-09-25T05:10:02.101Z,3.23
2022-09-25T05:12:32.075Z,3.33
2022-09-25T05:15:02.344Z,3.57
2022-09-25T05:17:32.064Z,3.80
2022-09-25T05:20:02.676Z,2.75
2022-09-25T05:22:32.403Z,3.40
2022-09-25T05:25:02.144Z,4.30
2022-09-25T05:27:34.241Z,3.47
2022-09-25T05:30:03.755Z,3.50
2022-09-25T05:32:33.280Z,3.35
2022-09-25T05:35:03.680Z,3.20
2022-09-25T05:37:34.951Z,2.63
2022-09-25T05:40:04.445Z,3.55
2022-09-25T05:42:34.951Z,3.25
2022-09-25T05:45:07.580Z,3.20
2022-09-25T05:47:36.376Z,3.10
2022-09-25T05:50:09.230Z,2.67
2022-09-25T05:52:38.938Z,3.20
2022-09-25T05:55:10.740Z,3.37
2022-09-25T05:57:40.489Z,3.10
2022-09-25T06:00:11.484Z,3.97
2022-09-25T06:02:44.273Z,3.27
2022-09-25T06:05:14.637Z,2.92
2022-09-25T06:07:44.376Z,3.20
2022-09-25T06:13:05.787Z,4.40
2022-09-25T06:15:41.995Z,5.05
2022-09-25T06:18:13.343Z,3.65
2022-09-25T06:20:44.028Z,4.53
2022-09-25T06:23:14.138Z,3.80
2022-09-25T06:25:44.257Z,3.80
2022-09-25T06:28:15.355Z,3.30
2022-09-25T06:30:45.480Z,2.92
2022-09-25T06:33:15.773Z,2.70
2022-09-25T06:35:47.823Z,3.20
2022-09-25T06:38:18.037Z,3.05
2022-09-25T06:40:47.990Z,3.47
2022-09-25T06:43:18.057Z,3.15
2022-09-25T06:45:49.184Z,3.20
2022-09-25T06:48:20.781Z,3.57
2022-09-25T06:50:56.186Z,3.30
2022-09-25T06:53:26.804Z,3.10
2022-09-25T06:55:59.778Z,3.27
2022-09-25T06:58:30.783Z,2.83
2022-09-25T07:01:00.698Z,2.90
2022-09-25T07:03:45.256Z,2.83
2022-09-25T07:06:21.934Z,3.30
2022-09-25T07:08:52.305Z,3.22
2022-09-25T07:11:24.900Z,3.27
2022-09-25T07:13:55.156Z,3.07
2022-09-25T07:16:30.501Z,3.70
2022-09-25T07:19:01.055Z,3.00
2022-09-25T07:21:32.084Z,3.10
2022-09-25T07:24:01.926Z,2.70
2022-09-25T07:26:33.672Z,2.83
2022-09-25T07:29:07.586Z,2.60
2022-09-25T07:31:39.175Z,2.53
2022-09-25T07:34:12.612Z,2.80
2022-09-25T07:36:42.950Z,2.60
2022-09-25T07:39:18.166Z,2.45
2022-09-25T07:41:44.447Z,2.77
2022-09-25T07:44:33.631Z,2.50
2022-09-25T07:46:46.104Z,2.30
2022-09-25T07:49:16.187Z,2.57
2022-09-25T07:51:45.927Z,2.27
2022-09-25T07:54:15.838Z,2.20
2022-09-25T07:56:45.566Z,1.90
2022-09-25T07:59:15.619Z,1.80
2022-09-25T08:01:48.564Z,1.87
2022-09-25T08:04:16.757Z,1.80
2022-09-25T08:06:46.476Z,1.53
2022-09-25T08:09:16.301Z,1.97
2022-09-25T08:11:46.337Z,1.50
2022-09-25T08:14:16.337Z,1.60
2022-09-25T08:16:47.457Z,1.60
2022-09-25T08:19:18.365Z,1.53
2022-09-25T08:21:47.853Z,1.75
2022-09-25T08:24:17.636Z,1.83
2022-09-25T08:26:48.202Z,1.47
2022-09-25T08:29:18.435Z,1.00
2022-09-25T08:31:48.347Z,1.30
2022-09-25T08:36:51.000Z,1.40
2022-09-25T08:39:21.012Z,0.90
2022-09-25T08:41:56.228Z,0.80
2022-09-25T08:44:37.748Z,0.88
2022-09-25T08:47:30.865Z,1.00
2022-09-25T08:50:15.755Z,0.90
2022-09-25T08:52:48.859Z,1.30
2022-09-25T08:55:28.661Z,1.10
2022-09-25T08:57:58.455Z,0.80
2022-09-25T09:00:29.846Z,1.10
2022-09-25T09:03:00.370Z,0.87
2022-09-25T09:05:39.201Z,0.70
2022-09-25T09:08:14.956Z,0.98
2022-09-25T09:10:59.592Z,0.90
2022-09-25T09:13:32.373Z,0.93
2022-09-25T09:16:10.728Z,1.40
2022-09-25T09:18:43.258Z,0.73
2022-09-25T09:21:22.582Z,1.07
2022-09-25T09:24:09.958Z,1.00
2022-09-25T09:27:04.030Z,0.70
2022-09-25T09:29:54.325Z,1.10
2022-09-25T09:32:32.741Z,0.60
2022-09-25T09:35:20.630Z,0.33
2022-09-25T09:37:59.092Z,0.77
2022-09-25T09:40:51.619Z,0.70
2022-09-25T09:43:38.521Z,0.80
2022-09-25T09:46:35.570Z,1.02
2022-09-25T09:49:24.752Z,1.25
2022-09-25T09:52:06.216Z,0.80
2022-09-25T09:54:42.811Z,0.40
2022-09-25T09:57:15.800Z,0.70
2022-09-25T09:59:48.590Z,0.70
2022-09-25T10:02:30.106Z,0.70
2022-09-25T10:05:03.768Z,0.60
2022-09-25T10:07:36.614Z,0.60
2022-09-25T10:10:15.779Z,0.50
2022-09-25T10:12:53.688Z,0.60
2022-09-25T10:15:42.647Z,0.63
2022-09-25T10:18:14.084Z,0.88
2022-09-25T10:20:49.414Z,0.60
2022-09-25T10:23:40.303Z,0.67
2022-09-25T10:26:29.419Z,0.50
2022-09-25T10:29:02.241Z,0.65
2022-09-25T10:31:37.640Z,0.67
2022-09-25T10:34:20.111Z,0.60
2022-09-25T10:36:54.672Z,0.60
2022-09-25T10:39:45.275Z,0.50
2022-09-25T10:42:11.845Z,0.50
2022-09-25T10:44:41.649Z,0.87
2022-09-25T10:47:40.860Z,1.13
2022-09-25T10:50:26.940Z,0.58
2022-09-25T10:53:02.620Z,0.60
2022-09-25T10:55:41.630Z,0.70
2022-09-25T10:58:20.659Z,0.55
2022-09-25T11:00:56.572Z,0.50
2022-09-25T11:03:35.566Z,0.55
2022-09-25T11:06:09.590Z,0.53
2022-09-25T11:08:41.253Z,0.60
2022-09-25T11:11:12.132Z,0.50
2022-09-25T11:13:50.545Z,0.42
2022-09-25T11:16:20.276Z,0.50
2022-09-25T11:18:52.232Z,0.50
2022-09-25T11:21:30.572Z,0.60
2022-09-25T11:24:19.744Z,0.40
2022-09-25T11:26:55.457Z,0.40
2022-09-25T11:29:45.419Z,0.50
2022-09-25T11:32:23.495Z,0.35
2022-09-25T11:35:20.260Z,0.30
2022-09-25T11:37:55.660Z,0.43
2022-09-25T11:40:57.998Z,0.30
2022-09-25T11:43:52.087Z,0.30
2022-09-25T11:46:35.223Z,0.40
2022-09-25T11:49:19.773Z,0.40
2022-09-25T11:52:08.954Z,0.77
2022-09-25T11:54:58.151Z,0.40
2022-09-25T11:57:35.020Z,0.50
2022-09-25T12:03:13.201Z,0.30
2022-09-25T12:06:08.189Z,0.40
2022-09-25T12:08:59.891Z,0.47
2022-09-25T12:11:54.567Z,0.50
2022-09-25T12:14:42.690Z,0.50
2022-09-25T12:17:38.894Z,0.37
2022-09-25T12:20:40.232Z,0.40
2022-09-25T12:23:27.658Z,0.50
2022-09-25T12:26:33.363Z,0.50
2022-09-25T12:29:21.917Z,0.40
2022-09-25T12:31:58.024Z,0.60
2022-09-25T12:34:56.585Z,0.37
2022-09-25T12:37:47.371Z,0.33
2022-09-25T12:40:32.278Z,0.60
2022-09-25T12:43:07.879Z,0.83
2022-09-25T12:45:51.821Z,0.80
2022-09-25T12:48:27.508Z,0.37
2022-09-25T12:51:06.889Z,0.60
2022-09-25T12:53:48.121Z,0.30
2022-09-25T12:56:24.155Z,0.85
2022-09-25T12:59:11.760Z,0.70
2022-09-25T13:01:57.340Z,0.60
2022-09-25T13:07:29.935Z,0.50
2022-09-25T13:10:00.767Z,0.30
2022-09-25T13:12:36.084Z,0.33
2022-09-25T13:15:23.493Z,0.20
2022-09-25T13:17:53.037Z,0.50
2022-09-25T13:20:31.787Z,0.78
2022-09-25T13:23:04.542Z,0.90
2022-09-25T13:25:50.864Z,0.40
2022-09-25T13:28:23.506Z,0.67
2022-09-25T13:31:11.270Z,0.50
2022-09-25T13:33:49.910Z,0.30
2022-09-25T13:36:28.264Z,0.60
2022-09-25T13:39:20.764Z,0.40
2022-09-25T13:42:02.480Z,0.40
2022-09-25T13:44:46.688Z,0.40
2022-09-25T13:47:25.020Z,0.53
2022-09-25T13:49:57.793Z,0.43
2022-09-25T13:52:32.937Z,0.53
2022-09-25T13:55:22.055Z,0.43
2022-09-25T13:58:01.424Z,0.60
2022-09-25T14:00:46.227Z,0.53
2022-09-25T14:03:37.025Z,0.40
2022-09-25T14:06:13.688Z,0.73
2022-09-25T14:08:46.362Z,0.75
2022-09-25T14:11:19.143Z,0.30
2022-09-25T14:13:52.440Z,0.30
2022-09-25T14:16:27.758Z,0.70
2022-09-25T14:18:59.764Z,0.40
2022-09-25T14:21:31.492Z,0.53
2022-09-25T14:24:21.297Z,0.57
2022-09-25T14:26:52.028Z,0.47
2022-09-25T14:29:27.510Z,0.47
2022-09-25T14:32:05.719Z,0.50
2022-09-25T14:34:56.047Z,0.50
2022-09-25T14:37:55.650Z,0.53
2022-09-25T14:40:30.188Z,0.47
2022-09-25T14:46:17.359Z,0.57
2022-09-25T14:48:52.507Z,0.57
2022-09-25T14:51:31.150Z,0.37
2022-09-25T14:54:04.380Z,0.40
2022-09-25T14:56:37.381Z,0.63
2022-09-25T14:59:13.093Z,0.53
2022-09-25T15:01:48.114Z,0.60
2022-09-25T15:04:32.661Z,0.50
2022-09-25T15:07:10.858Z,0.40
2022-09-25T15:09:44.465Z,0.67
2022-09-25T15:12:34.014Z,0.53
2022-09-25T15:15:09.850Z,0.30
2022-09-25T15:17:49.342Z,0.37
2022-09-25T15:20:24.159Z,0.30
2022-09-25T15:23:03.340Z,0.30
2022-09-25T15:25:41.883Z,0.30
2022-09-25T15:28:15.034Z,0.50
2022-09-25T15:30:47.201Z,0.50
2022-09-25T15:33:26.470Z,0.40
2022-09-25T15:36:04.761Z,0.50
2022-09-25T15:38:37.571Z,0.90
2022-09-25T15:41:12.602Z,0.50
2022-09-25T15:43:43.142Z,0.40
2022-09-25T15:46:30.814Z,0.50
2022-09-25T15:49:01.941Z,0.40
2022-09-25T15:51:33.771Z,0.35
2022-09-25T15:54:09.287Z,0.60
2022-09-25T15:56:47.806Z,1.00
2022-09-25T15:59:20.574Z,1.37
2022-09-25T16:02:08.354Z,0.57
2022-09-25T16:04:40.098Z,0.67
2022-09-25T16:07:34.199Z,0.70
2022-09-25T16:10:13.566Z,1.20
2022-09-25T16:12:49.055Z,0.70
2022-09-25T16:15:30.993Z,0.55
2022-09-25T16:18:05.915Z,0.50
2022-09-25T16:20:37.480Z,0.70
2022-09-25T16:23:09.852Z,0.67
2022-09-25T16:28:27.230Z,0.70
2022-09-25T16:31:05.077Z,0.50
2022-09-25T16:33:38.766Z,0.73
2022-09-25T16:36:17.512Z,0.60
2022-09-25T16:39:10.300Z,0.60
2022-09-25T16:41:43.076Z,0.50
2022-09-25T16:44:18.863Z,0.60
2022-09-25T16:46:59.904Z,0.60
2022-09-25T16:49:31.263Z,0.70
2022-09-25T16:52:03.071Z,0.60
2022-09-25T16:54:33.550Z,0.80
2022-09-25T16:57:04.047Z,1.13
2022-09-25T16:59:33.817Z,0.40
2022-09-25T17:02:06.690Z,0.50
2022-09-25T17:04:38.614Z,0.60
2022-09-25T17:07:10.182Z,0.50
2022-09-25T17:09:40.197Z,0.50
2022-09-25T17:12:14.113Z,0.60
2022-09-25T17:14:44.039Z,0.70
2022-09-25T17:17:16.806Z,0.57
2022-09-25T17:19:46.673Z,0.70
2022-09-25T17:22:16.465Z,0.60
2022-09-25T17:24:46.214Z,0.83
2022-09-25T17:27:17.067Z,0.83
2022-09-25T17:29:48.071Z,0.90
2022-09-25T17:32:17.861Z,1.03
2022-09-25T17:34:47.743Z,0.80
2022-09-25T17:37:17.535Z,0.90
2022-09-25T17:39:47.300Z,0.67
2022-09-25T17:42:17.287Z,0.80
2022-09-25T17:44:47.321Z,0.90
2022-09-25T17:47:17.042Z,0.83
2022-09-25T17:49:48.467Z,1.10
2022-09-25T17:52:20.257Z,0.80
2022-09-25T17:54:50.059Z,3.33
2022-09-25T17:57:19.807Z,9.20
2022-09-25T17:59:49.575Z,8.13
2022-09-25T18:02:19.475Z,6.77
2022-09-25T18:04:49.574Z,8.73
2022-09-25T18:07:20.307Z,7.87
2022-09-25T18:09:50.055Z,8.73
2022-09-25T18:12:19.507Z,9.80
2022-09-25T18:14:50.665Z,6.00
2022-09-25T18:17:20.159Z,4.60
2022-09-25T18:20:07.520Z,5.73
2022-09-25T18:25:10.276Z,5.06
2022-09-25T18:27:41.731Z,3.37
2022-09-25T18:30:16.297Z,2.50
2022-09-25T18:32:46.017Z,2.93
2022-09-25T18:35:15.980Z,2.33
2022-09-25T18:37:46.143Z,2.40
2022-09-25T18:40:18.425Z,2.47
2022-09-25T18:42:48.385Z,2.70
2022-09-25T18:45:18.145Z,3.42
2022-09-25T18:47:47.947Z,3.47
2022-09-25T18:50:20.872Z,2.62
2022-09-25T18:52:51.003Z,1.60
2022-09-25T18:55:20.663Z,2.20
2022-09-25T18:57:50.385Z,2.00
2022-09-25T19:00:20.717Z,2.27
2022-09-25T19:02:50.724Z,1.83
2022-09-25T19:05:20.664Z,1.57
2022-09-25T19:07:50.155Z,1.90
2022-09-25T19:10:20.049Z,1.98
2022-09-25T19:12:49.801Z,1.60
2022-09-25T19:15:19.299Z,1.53
2022-09-25T19:17:49.038Z,1.97
2022-09-25T19:20:18.878Z,1.78
2022-09-25T19:22:49.029Z,1.80
2022-09-25T19:25:22.339Z,2.30
2022-09-25T19:27:50.443Z,2.33
2022-09-25T19:30:22.063Z,2.38
2022-09-25T19:32:51.861Z,2.00
2022-09-25T19:35:21.745Z,2.12
2022-09-25T19:37:51.820Z,1.92
2022-09-25T19:40:36.612Z,2.20
2022-09-25T19:43:08.287Z,2.00
2022-09-25T19:45:37.992Z,2.20
2022-09-25T19:48:09.349Z,2.40
2022-09-25T19:50:43.324Z,1.77
2022-09-25T19:53:14.213Z,2.30
2022-09-25T19:55:44.030Z,2.37
2022-09-25T19:58:13.527Z,2.43
2022-09-25T20:00:43.652Z,2.33
2022-09-25T20:03:13.471Z,2.47
2022-09-25T20:05:44.514Z,2.63
2022-09-25T20:08:14.253Z,2.30
2022-09-25T20:10:43.993Z,2.60
2022-09-25T20:13:13.717Z,2.87
2022-09-25T20:15:45.127Z,3.40
2022-09-25T20:18:16.792Z,2.77
2022-09-25T20:20:46.853Z,2.80
2022-09-25T20:23:16.660Z,2.70
2022-09-25T20:25:46.390Z,2.10
2022-09-25T20:28:16.196Z,2.77
2022-09-25T20:30:45.983Z,2.90
2022-09-25T20:33:15.741Z,3.53
2022-09-25T20:35:45.492Z,2.83
2022-09-25T20:38:14.936Z,2.20
2022-09-25T20:40:44.728Z,2.47
2022-09-25T20:43:14.474Z,2.20
2022-09-25T20:45:44.537Z,2.40
2022-09-25T20:48:15.819Z,2.67
2022-09-25T20:50:50.995Z,2.33
2022-09-25T20:53:20.726Z,2.80
2022-09-25T20:55:51.326Z,2.60
2022-09-25T20:58:20.912Z,3.00
2022-09-25T21:00:51.317Z,3.05
2022-09-25T21:03:21.052Z,2.90
2022-09-25T21:05:50.785Z,2.60
2022-09-25T21:08:20.308Z,2.97
2022-09-25T21:10:51.581Z,3.30
2022-09-25T21:13:21.523Z,3.10
2022-09-25T21:15:51.438Z,2.83
2022-09-25T21:18:21.459Z,3.37
2022-09-25T21:20:51.189Z,3.40
2022-09-25T21:23:21.108Z,2.70
2022-09-25T21:25:51.302Z,3.20
2022-09-25T21:28:22.033Z,2.80
2022-09-25T21:30:51.844Z,3.10
2022-09-25T21:33:21.789Z,2.65
2022-09-25T21:35:51.511Z,3.23
2022-09-25T21:38:20.949Z,3.33
2022-09-25T21:40:50.886Z,3.13
2022-09-25T21:43:20.603Z,3.50
2022-09-25T21:45:50.683Z,3.30
2022-09-25T21:48:20.590Z,3.50
2022-09-25T21:50:58.043Z,3.63
2022-09-25T21:53:28.243Z,4.10
2022-09-25T21:56:09.515Z,4.25
2022-09-25T21:58:39.600Z,4.00
2022-09-25T22:01:12.266Z,3.53
2022-09-25T22:03:44.053Z,3.70
2022-09-25T22:06:16.224Z,3.65
2022-09-25T22:08:48.400Z,3.53
2022-09-25T22:11:19.039Z,3.70
2022-09-25T22:13:50.313Z,3.60
2022-09-25T22:16:22.499Z,3.80
2022-09-25T22:18:55.348Z,3.57
2022-09-25T22:21:28.110Z,3.30
2022-09-25T22:23:58.371Z,3.30
2022-09-25T22:26:29.395Z,3.50
2022-09-25T22:28:59.134Z,3.23
2022-09-25T22:31:31.300Z,2.90
2022-09-25T22:34:03.723Z,3.20
2022-09-25T22:36:36.198Z,3.25
2022-09-25T22:39:07.057Z,3.20
2022-09-25T22:41:37.079Z,2.87
2022-09-25T22:44:08.432Z,3.50
2022-09-25T22:46:38.270Z,3.30
2022-09-25T22:49:08.087Z,3.17
2022-09-25T22:51:37.827Z,3.20
2022-09-25T22:54:10.600Z,3.64
2022-09-25T22:56:40.892Z,3.58
2022-09-25T22:59:14.450Z,3.40
2022-09-25T23:01:47.685Z,3.60
2022-09-25T23:04:22.873Z,3.90
2022-09-25T23:06:52.801Z,4.10
2022-09-25T23:09:25.838Z,3.87
2022-09-25T23:11:57.348Z,3.90
2022-09-25T23:14:29.673Z,4.30
2022-09-25T23:17:01.755Z,4.03
2022-09-25T23:19:31.796Z,4.08
2022-09-25T23:22:01.623Z,3.57
2022-09-25T23:24:31.481Z,4.30
2022-09-25T23:27:01.202Z,4.07
2022-09-25T23:29:30.949Z,3.90
2022-09-25T23:32:00.857Z,4.23
2022-09-25T23:34:30.693Z,4.50
2022-09-25T23:37:00.139Z,3.58
2022-09-25T23:39:30.097Z,4.47
2022-09-25T23:41:59.842Z,4.00
2022-09-25T23:44:29.638Z,4.00
2022-09-25T23:46:59.303Z,3.92
2022-09-25T23:49:29.042Z,4.37
2022-09-25T23:51:58.787Z,3.87
2022-09-25T23:54:28.517Z,4.23
2022-09-25T23:56:59.206Z,4.20
2022-09-25T23:59:28.925Z,4.30
